sensor_id;sensor_type;location;lat;lon;timestamp;P1;durP1;ratioP1;P2;durP2;ratioP2
62030;SDS011;62035;52.094;5.112;2022-12-18T00:01:22;57.67;;;19.45;;
62030;SDS011;62035;52.094;5.112;2022-12-18T00:03:52;59.97;;;20.90;;
62030;SDS011;62035;52.094;5.112;2022-12-18T00:06:23;58.15;;;21.25;;
62030;SDS011;62035;52.094;5.112;2022-12-18T00:08:54;57.45;;;19.65;;
62030;SDS011;62035;52.094;5.112;2022-12-18T00:11:24;67.88;;;21.35;;
62030;SDS011;62035;52.094;5.112;2022-12-18T00:13:55;57.10;;;20.40;;
62030;SDS011;62035;52.094;5.112;2022-12-18T00:16:26;63.25;;;21.85;;
62030;SDS011;62035;52.094;5.112;2022-12-18T00:18:56;49.58;;;19.33;;
62030;SDS011;62035;52.094;5.112;2022-12-18T00:21:28;64.32;;;20.92;;
62030;SDS011;62035;52.094;5.112;2022-12-18T00:23:58;54.40;;;19.17;;
62030;SDS011;62035;52.094;5.112;2022-12-18T00:26:27;52.17;;;20.70;;
62030;SDS011;62035;52.094;5.112;2022-12-18T00:28:58;53.10;;;19.67;;
62030;SDS011;62035;52.094;5.112;2022-12-18T00:31:27;52.80;;;19.95;;
62030;SDS011;62035;52.094;5.112;2022-12-18T00:33:55;51.75;;;19.67;;
62030;SDS011;62035;52.094;5.112;2022-12-18T00:36:24;57.33;;;20.70;;
62030;SDS011;62035;52.094;5.112;2022-12-18T00:38:56;56.10;;;20.48;;
62030;SDS011;62035;52.094;5.112;2022-12-18T00:41:26;59.88;;;20.17;;
62030;SDS011;62035;52.094;5.112;2022-12-18T00:44:13;61.17;;;21.45;;
62030;SDS011;62035;52.094;5.112;2022-12-18T00:46:43;53.00;;;19.95;;
62030;SDS011;62035;52.094;5.112;2022-12-18T00:49:13;49.97;;;18.80;;
62030;SDS011;62035;52.094;5.112;2022-12-18T00:51:43;50.58;;;19.88;;
62030;SDS011;62035;52.094;5.112;2022-12-18T00:54:10;71.35;;;23.80;;
62030;SDS011;62035;52.094;5.112;2022-12-18T00:56:39;73.78;;;22.17;;
62030;SDS011;62035;52.094;5.112;2022-12-18T00:59:07;57.08;;;22.33;;
62030;SDS011;62035;52.094;5.112;2022-12-18T01:01:34;61.40;;;23.48;;
62030;SDS011;62035;52.094;5.112;2022-12-18T01:04:02;74.40;;;22.60;;
62030;SDS011;62035;52.094;5.112;2022-12-18T01:06:30;67.72;;;20.55;;
62030;SDS011;62035;52.094;5.112;2022-12-18T01:08:59;59.28;;;20.17;;
62030;SDS011;62035;52.094;5.112;2022-12-18T01:11:27;61.58;;;19.70;;
62030;SDS011;62035;52.094;5.112;2022-12-18T01:13:55;63.67;;;21.42;;
62030;SDS011;62035;52.094;5.112;2022-12-18T01:16:23;57.13;;;21.67;;
62030;SDS011;62035;52.094;5.112;2022-12-18T01:18:51;60.85;;;21.17;;
62030;SDS011;62035;52.094;5.112;2022-12-18T01:21:21;57.63;;;21.47;;
62030;SDS011;62035;52.094;5.112;2022-12-18T01:23:51;54.10;;;19.85;;
62030;SDS011;62035;52.094;5.112;2022-12-18T01:26:21;53.50;;;20.10;;
62030;SDS011;62035;52.094;5.112;2022-12-18T01:28:49;65.40;;;20.80;;
62030;SDS011;62035;52.094;5.112;2022-12-18T01:31:18;54.47;;;21.70;;
62030;SDS011;62035;52.094;5.112;2022-12-18T01:33:48;62.47;;;20.30;;
62030;SDS011;62035;52.094;5.112;2022-12-18T01:36:17;65.35;;;20.77;;
62030;SDS011;62035;52.094;5.112;2022-12-18T01:38:48;60.38;;;20.58;;
62030;SDS011;62035;52.094;5.112;2022-12-18T01:41:17;62.63;;;19.93;;
62030;SDS011;62035;52.094;5.112;2022-12-18T01:43:50;74.28;;;23.55;;
62030;SDS011;62035;52.094;5.112;2022-12-18T01:46:21;62.15;;;21.65;;
62030;SDS011;62035;52.094;5.112;2022-12-18T01:48:53;64.25;;;22.08;;
62030;SDS011;62035;52.094;5.112;2022-12-18T01:51:26;63.70;;;21.23;;
62030;SDS011;62035;52.094;5.112;2022-12-18T01:53:56;72.75;;;22.08;;
62030;SDS011;62035;52.094;5.112;2022-12-18T01:56:26;62.90;;;21.40;;
62030;SDS011;62035;52.094;5.112;2022-12-18T01:58:56;70.63;;;23.70;;
62030;SDS011;62035;52.094;5.112;2022-12-18T02:01:29;61.60;;;22.77;;
62030;SDS011;62035;52.094;5.112;2022-12-18T02:04:13;64.75;;;22.80;;
62030;SDS011;62035;52.094;5.112;2022-12-18T02:06:47;52.80;;;19.87;;
62030;SDS011;62035;52.094;5.112;2022-12-18T02:09:28;56.25;;;20.88;;
62030;SDS011;62035;52.094;5.112;2022-12-18T02:12:06;54.80;;;21.10;;
62030;SDS011;62035;52.094;5.112;2022-12-18T02:14:49;53.83;;;20.63;;
62030;SDS011;62035;52.094;5.112;2022-12-18T02:17:28;51.45;;;19.67;;
62030;SDS011;62035;52.094;5.112;2022-12-18T02:20:06;58.65;;;20.98;;
62030;SDS011;62035;52.094;5.112;2022-12-18T02:22:45;61.13;;;21.88;;
62030;SDS011;62035;52.094;5.112;2022-12-18T02:28:40;53.22;;;19.70;;
62030;SDS011;62035;52.094;5.112;2022-12-18T02:31:14;49.67;;;19.40;;
62030;SDS011;62035;52.094;5.112;2022-12-18T02:33:50;54.53;;;19.90;;
62030;SDS011;62035;52.094;5.112;2022-12-18T02:36:27;54.55;;;19.40;;
62030;SDS011;62035;52.094;5.112;2022-12-18T02:38:59;63.83;;;21.55;;
62030;SDS011;62035;52.094;5.112;2022-12-18T02:41:32;55.50;;;21.55;;
62030;SDS011;62035;52.094;5.112;2022-12-18T02:44:06;56.45;;;20.98;;
62030;SDS011;62035;52.094;5.112;2022-12-18T02:46:37;47.33;;;19.27;;
62030;SDS011;62035;52.094;5.112;2022-12-18T02:49:15;49.13;;;19.65;;
62030;SDS011;62035;52.094;5.112;2022-12-18T02:52:01;41.47;;;17.88;;
62030;SDS011;62035;52.094;5.112;2022-12-18T02:54:41;48.80;;;19.55;;
62030;SDS011;62035;52.094;5.112;2022-12-18T02:57:27;47.03;;;19.13;;
62030;SDS011;62035;52.094;5.112;2022-12-18T03:00:05;48.88;;;16.75;;
62030;SDS011;62035;52.094;5.112;2022-12-18T03:02:39;54.67;;;18.80;;
62030;SDS011;62035;52.094;5.112;2022-12-18T03:05:15;50.77;;;18.27;;
62030;SDS011;62035;52.094;5.112;2022-12-18T03:07:49;57.97;;;18.47;;
62030;SDS011;62035;52.094;5.112;2022-12-18T03:10:24;42.07;;;16.70;;
62030;SDS011;62035;52.094;5.112;2022-12-18T03:12:58;39.97;;;17.67;;
62030;SDS011;62035;52.094;5.112;2022-12-18T03:15:33;40.67;;;16.07;;
62030;SDS011;62035;52.094;5.112;2022-12-18T03:18:07;51.77;;;19.30;;
62030;SDS011;62035;52.094;5.112;2022-12-18T03:20:42;40.77;;;17.40;;
62030;SDS011;62035;52.094;5.112;2022-12-18T03:23:15;41.15;;;17.15;;
62030;SDS011;62035;52.094;5.112;2022-12-18T03:25:50;39.10;;;17.88;;
62030;SDS011;62035;52.094;5.112;2022-12-18T03:28:25;40.93;;;17.33;;
62030;SDS011;62035;52.094;5.112;2022-12-18T03:31:01;41.42;;;17.27;;
62030;SDS011;62035;52.094;5.112;2022-12-18T03:33:34;45.67;;;19.63;;
62030;SDS011;62035;52.094;5.112;2022-12-18T03:36:09;41.45;;;16.60;;
62030;SDS011;62035;52.094;5.112;2022-12-18T03:38:36;45.72;;;17.90;;
62030;SDS011;62035;52.094;5.112;2022-12-18T03:41:07;40.33;;;17.03;;
62030;SDS011;62035;52.094;5.112;2022-12-18T03:43:49;42.00;;;17.60;;
62030;SDS011;62035;52.094;5.112;2022-12-18T03:46:28;38.23;;;16.97;;
62030;SDS011;62035;52.094;5.112;2022-12-18T03:49:05;41.35;;;17.00;;
62030;SDS011;62035;52.094;5.112;2022-12-18T03:51:42;45.07;;;16.00;;
62030;SDS011;62035;52.094;5.112;2022-12-18T03:54:19;38.77;;;16.10;;
62030;SDS011;62035;52.094;5.112;2022-12-18T03:56:51;39.08;;;16.88;;
62030;SDS011;62035;52.094;5.112;2022-12-18T03:59:26;43.97;;;18.20;;
62030;SDS011;62035;52.094;5.112;2022-12-18T04:01:56;47.37;;;16.30;;
62030;SDS011;62035;52.094;5.112;2022-12-18T04:04:28;36.85;;;17.20;;
62030;SDS011;62035;52.094;5.112;2022-12-18T04:06:57;30.50;;;15.67;;
62030;SDS011;62035;52.094;5.112;2022-12-18T04:09:26;38.03;;;16.70;;
62030;SDS011;62035;52.094;5.112;2022-12-18T04:11:56;37.27;;;15.87;;
62030;SDS011;62035;52.094;5.112;2022-12-18T04:14:24;37.90;;;17.30;;
62030;SDS011;62035;52.094;5.112;2022-12-18T04:16:53;32.50;;;15.83;;
62030;SDS011;62035;52.094;5.112;2022-12-18T04:19:21;32.50;;;16.27;;
62030;SDS011;62035;52.094;5.112;2022-12-18T04:21:48;44.40;;;17.77;;
62030;SDS011;62035;52.094;5.112;2022-12-18T04:24:16;38.47;;;16.90;;
62030;SDS011;62035;52.094;5.112;2022-12-18T04:26:44;40.73;;;17.30;;
62030;SDS011;62035;52.094;5.112;2022-12-18T04:29:11;39.23;;;18.27;;
62030;SDS011;62035;52.094;5.112;2022-12-18T04:31:39;42.97;;;17.60;;
62030;SDS011;62035;52.094;5.112;2022-12-18T04:34:08;41.17;;;17.10;;
62030;SDS011;62035;52.094;5.112;2022-12-18T04:36:36;40.93;;;17.77;;
62030;SDS011;62035;52.094;5.112;2022-12-18T04:39:03;40.50;;;16.70;;
62030;SDS011;62035;52.094;5.112;2022-12-18T04:41:31;38.53;;;16.27;;
62030;SDS011;62035;52.094;5.112;2022-12-18T04:43:59;38.10;;;16.63;;
62030;SDS011;62035;52.094;5.112;2022-12-18T04:46:26;35.27;;;14.97;;
62030;SDS011;62035;52.094;5.112;2022-12-18T04:48:54;32.70;;;14.77;;
62030;SDS011;62035;52.094;5.112;2022-12-18T04:51:23;34.90;;;14.53;;
62030;SDS011;62035;52.094;5.112;2022-12-18T04:53:51;40.53;;;16.37;;
62030;SDS011;62035;52.094;5.112;2022-12-18T04:56:18;33.07;;;13.77;;
62030;SDS011;62035;52.094;5.112;2022-12-18T04:58:46;33.23;;;14.17;;
62030;SDS011;62035;52.094;5.112;2022-12-18T05:01:15;35.97;;;14.57;;
62030;SDS011;62035;52.094;5.112;2022-12-18T05:03:44;35.70;;;13.80;;
62030;SDS011;62035;52.094;5.112;2022-12-18T05:06:12;31.20;;;14.90;;
62030;SDS011;62035;52.094;5.112;2022-12-18T05:08:41;29.03;;;12.77;;
62030;SDS011;62035;52.094;5.112;2022-12-18T05:11:10;36.23;;;14.83;;
62030;SDS011;62035;52.094;5.112;2022-12-18T05:16:09;25.90;;;12.37;;
62030;SDS011;62035;52.094;5.112;2022-12-18T05:18:39;31.70;;;13.00;;
62030;SDS011;62035;52.094;5.112;2022-12-18T05:21:07;28.50;;;12.10;;
62030;SDS011;62035;52.094;5.112;2022-12-18T05:23:35;30.33;;;13.17;;
62030;SDS011;62035;52.094;5.112;2022-12-18T05:26:04;28.93;;;12.37;;
62030;SDS011;62035;52.094;5.112;2022-12-18T05:28:34;24.97;;;11.67;;
62030;SDS011;62035;52.094;5.112;2022-12-18T05:31:03;26.97;;;12.87;;
62030;SDS011;62035;52.094;5.112;2022-12-18T05:33:33;23.90;;;11.47;;
62030;SDS011;62035;52.094;5.112;2022-12-18T05:36:02;26.07;;;11.07;;
62030;SDS011;62035;52.094;5.112;2022-12-18T05:38:33;21.90;;;9.93;;
62030;SDS011;62035;52.094;5.112;2022-12-18T05:41:05;21.57;;;10.67;;
62030;SDS011;62035;52.094;5.112;2022-12-18T05:43:33;23.90;;;11.60;;
62030;SDS011;62035;52.094;5.112;2022-12-18T05:46:05;21.10;;;11.03;;
62030;SDS011;62035;52.094;5.112;2022-12-18T05:48:34;23.70;;;11.18;;
62030;SDS011;62035;52.094;5.112;2022-12-18T05:51:05;20.90;;;9.67;;
62030;SDS011;62035;52.094;5.112;2022-12-18T05:53:35;19.37;;;8.73;;
62030;SDS011;62035;52.094;5.112;2022-12-18T05:56:06;22.37;;;10.20;;
62030;SDS011;62035;52.094;5.112;2022-12-18T05:58:36;24.48;;;11.32;;
62030;SDS011;62035;52.094;5.112;2022-12-18T06:01:07;25.70;;;10.47;;
62030;SDS011;62035;52.094;5.112;2022-12-18T06:03:38;19.07;;;9.90;;
62030;SDS011;62035;52.094;5.112;2022-12-18T06:06:12;22.67;;;10.43;;
62030;SDS011;62035;52.094;5.112;2022-12-18T06:08:41;18.87;;;9.60;;
62030;SDS011;62035;52.094;5.112;2022-12-18T06:11:10;22.20;;;9.63;;
62030;SDS011;62035;52.094;5.112;2022-12-18T06:13:38;20.27;;;10.00;;
62030;SDS011;62035;52.094;5.112;2022-12-18T06:16:06;25.83;;;10.10;;
62030;SDS011;62035;52.094;5.112;2022-12-18T06:18:34;19.47;;;9.27;;
62030;SDS011;62035;52.094;5.112;2022-12-18T06:21:02;17.60;;;9.60;;
62030;SDS011;62035;52.094;5.112;2022-12-18T06:23:30;17.77;;;9.17;;
62030;SDS011;62035;52.094;5.112;2022-12-18T06:25:58;15.60;;;9.10;;
62030;SDS011;62035;52.094;5.112;2022-12-18T06:28:27;18.83;;;8.93;;
62030;SDS011;62035;52.094;5.112;2022-12-18T06:30:54;23.60;;;9.63;;
62030;SDS011;62035;52.094;5.112;2022-12-18T06:33:22;17.93;;;8.80;;
62030;SDS011;62035;52.094;5.112;2022-12-18T06:35:54;18.35;;;9.55;;
62030;SDS011;62035;52.094;5.112;2022-12-18T06:38:26;17.05;;;9.15;;
62030;SDS011;62035;52.094;5.112;2022-12-18T06:40:54;19.43;;;9.07;;
62030;SDS011;62035;52.094;5.112;2022-12-18T06:43:21;17.67;;;8.87;;
62030;SDS011;62035;52.094;5.112;2022-12-18T06:45:50;16.97;;;8.93;;
62030;SDS011;62035;52.094;5.112;2022-12-18T06:48:18;19.33;;;9.60;;
62030;SDS011;62035;52.094;5.112;2022-12-18T06:50:46;15.83;;;8.10;;
62030;SDS011;62035;52.094;5.112;2022-12-18T06:53:14;18.03;;;8.63;;
62030;SDS011;62035;52.094;5.112;2022-12-18T06:55:42;18.07;;;8.57;;
62030;SDS011;62035;52.094;5.112;2022-12-18T06:58:10;16.37;;;8.53;;
62030;SDS011;62035;52.094;5.112;2022-12-18T07:00:37;18.10;;;8.53;;
62030;SDS011;62035;52.094;5.112;2022-12-18T07:03:06;15.33;;;8.73;;
62030;SDS011;62035;52.094;5.112;2022-12-18T07:05:34;21.60;;;9.47;;
62030;SDS011;62035;52.094;5.112;2022-12-18T07:08:07;16.50;;;8.97;;
62030;SDS011;62035;52.094;5.112;2022-12-18T07:10:40;16.13;;;8.93;;
62030;SDS011;62035;52.094;5.112;2022-12-18T07:13:09;21.00;;;9.50;;
62030;SDS011;62035;52.094;5.112;2022-12-18T07:15:37;20.30;;;10.50;;
62030;SDS011;62035;52.094;5.112;2022-12-18T07:18:04;14.90;;;8.70;;
62030;SDS011;62035;52.094;5.112;2022-12-18T07:20:33;18.53;;;9.27;;
62030;SDS011;62035;52.094;5.112;2022-12-18T07:23:01;17.70;;;9.07;;
62030;SDS011;62035;52.094;5.112;2022-12-18T07:25:29;18.57;;;8.77;;
62030;SDS011;62035;52.094;5.112;2022-12-18T07:27:57;18.77;;;9.37;;
62030;SDS011;62035;52.094;5.112;2022-12-18T07:30:27;15.23;;;8.17;;
62030;SDS011;62035;52.094;5.112;2022-12-18T07:32:55;25.50;;;9.83;;
62030;SDS011;62035;52.094;5.112;2022-12-18T07:35:24;22.40;;;9.97;;
62030;SDS011;62035;52.094;5.112;2022-12-18T07:37:51;22.63;;;9.43;;
62030;SDS011;62035;52.094;5.112;2022-12-18T07:40:19;23.43;;;10.13;;
62030;SDS011;62035;52.094;5.112;2022-12-18T07:42:47;17.83;;;8.83;;
62030;SDS011;62035;52.094;5.112;2022-12-18T07:45:14;16.03;;;8.43;;
62030;SDS011;62035;52.094;5.112;2022-12-18T07:47:42;15.20;;;8.33;;
62030;SDS011;62035;52.094;5.112;2022-12-18T07:50:10;18.67;;;8.37;;
62030;SDS011;62035;52.094;5.112;2022-12-18T07:52:40;20.90;;;9.70;;
62030;SDS011;62035;52.094;5.112;2022-12-18T07:55:08;18.27;;;9.83;;
62030;SDS011;62035;52.094;5.112;2022-12-18T07:57:35;20.30;;;8.77;;
62030;SDS011;62035;52.094;5.112;2022-12-18T08:00:03;19.07;;;8.80;;
62030;SDS011;62035;52.094;5.112;2022-12-18T08:02:32;18.60;;;8.37;;
62030;SDS011;62035;52.094;5.112;2022-12-18T08:05:00;15.47;;;9.17;;
62030;SDS011;62035;52.094;5.112;2022-12-18T08:07:28;18.43;;;9.20;;
62030;SDS011;62035;52.094;5.112;2022-12-18T08:09:57;18.30;;;9.60;;
62030;SDS011;62035;52.094;5.112;2022-12-18T08:12:25;21.03;;;9.87;;
62030;SDS011;62035;52.094;5.112;2022-12-18T08:14:52;19.97;;;9.73;;
62030;SDS011;62035;52.094;5.112;2022-12-18T08:17:20;20.37;;;9.90;;
62030;SDS011;62035;52.094;5.112;2022-12-18T08:19:48;17.00;;;9.47;;
62030;SDS011;62035;52.094;5.112;2022-12-18T08:22:15;17.27;;;8.67;;
62030;SDS011;62035;52.094;5.112;2022-12-18T08:24:43;19.37;;;9.67;;
62030;SDS011;62035;52.094;5.112;2022-12-18T08:27:12;21.00;;;10.00;;
62030;SDS011;62035;52.094;5.112;2022-12-18T08:29:40;15.07;;;8.60;;
62030;SDS011;62035;52.094;5.112;2022-12-18T08:32:08;19.60;;;9.57;;
62030;SDS011;62035;52.094;5.112;2022-12-18T08:34:36;15.53;;;8.37;;
62030;SDS011;62035;52.094;5.112;2022-12-18T08:37:03;20.93;;;9.83;;
62030;SDS011;62035;52.094;5.112;2022-12-18T08:39:31;16.33;;;8.80;;
62030;SDS011;62035;52.094;5.112;2022-12-18T08:42:00;20.87;;;8.53;;
62030;SDS011;62035;52.094;5.112;2022-12-18T08:44:46;15.40;;;8.97;;
62030;SDS011;62035;52.094;5.112;2022-12-18T08:47:14;17.03;;;9.00;;
62030;SDS011;62035;52.094;5.112;2022-12-18T08:49:42;19.40;;;9.67;;
62030;SDS011;62035;52.094;5.112;2022-12-18T08:52:09;17.70;;;10.13;;
62030;SDS011;62035;52.094;5.112;2022-12-18T08:54:44;19.37;;;8.67;;
62030;SDS011;62035;52.094;5.112;2022-12-18T08:57:12;22.47;;;9.67;;
62030;SDS011;62035;52.094;5.112;2022-12-18T08:59:39;17.80;;;8.97;;
62030;SDS011;62035;52.094;5.112;2022-12-18T09:02:09;20.07;;;9.00;;
62030;SDS011;62035;52.094;5.112;2022-12-18T09:04:37;17.93;;;9.40;;
62030;SDS011;62035;52.094;5.112;2022-12-18T09:07:05;16.20;;;8.67;;
62030;SDS011;62035;52.094;5.112;2022-12-18T09:09:33;17.43;;;8.83;;
62030;SDS011;62035;52.094;5.112;2022-12-18T09:12:00;24.23;;;9.97;;
62030;SDS011;62035;52.094;5.112;2022-12-18T09:14:28;18.67;;;8.93;;
62030;SDS011;62035;52.094;5.112;2022-12-18T09:16:56;23.90;;;9.37;;
62030;SDS011;62035;52.094;5.112;2022-12-18T09:19:25;15.20;;;8.37;;
62030;SDS011;62035;52.094;5.112;2022-12-18T09:21:52;17.87;;;8.43;;
62030;SDS011;62035;52.094;5.112;2022-12-18T09:24:20;19.53;;;9.60;;
62030;SDS011;62035;52.094;5.112;2022-12-18T09:26:52;19.73;;;8.80;;
62030;SDS011;62035;52.094;5.112;2022-12-18T09:29:20;17.50;;;8.63;;
62030;SDS011;62035;52.094;5.112;2022-12-18T09:31:48;22.63;;;9.82;;
62030;SDS011;62035;52.094;5.112;2022-12-18T09:34:19;19.73;;;9.97;;
62030;SDS011;62035;52.094;5.112;2022-12-18T09:36:49;19.43;;;10.00;;
62030;SDS011;62035;52.094;5.112;2022-12-18T09:39:17;15.77;;;9.05;;
62030;SDS011;62035;52.094;5.112;2022-12-18T09:41:46;15.35;;;8.27;;
62030;SDS011;62035;52.094;5.112;2022-12-18T09:44:23;17.63;;;8.93;;
62030;SDS011;62035;52.094;5.112;2022-12-18T09:47:05;17.43;;;8.60;;
62030;SDS011;62035;52.094;5.112;2022-12-18T09:49:41;17.45;;;9.10;;
62030;SDS011;62035;52.094;5.112;2022-12-18T09:52:15;19.42;;;9.13;;
62030;SDS011;62035;52.094;5.112;2022-12-18T09:54:49;21.00;;;9.05;;
62030;SDS011;62035;52.094;5.112;2022-12-18T09:57:23;20.03;;;10.00;;
62030;SDS011;62035;52.094;5.112;2022-12-18T09:59:53;14.65;;;8.70;;
62030;SDS011;62035;52.094;5.112;2022-12-18T10:02:26;17.05;;;8.15;;
62030;SDS011;62035;52.094;5.112;2022-12-18T10:05:02;14.05;;;8.30;;
62030;SDS011;62035;52.094;5.112;2022-12-18T10:07:41;17.60;;;9.13;;
62030;SDS011;62035;52.094;5.112;2022-12-18T10:10:23;18.77;;;8.80;;
62030;SDS011;62035;52.094;5.112;2022-12-18T10:13:07;19.67;;;8.47;;
62030;SDS011;62035;52.094;5.112;2022-12-18T10:15:51;16.77;;;9.00;;
62030;SDS011;62035;52.094;5.112;2022-12-18T10:18:39;15.15;;;8.38;;
62030;SDS011;62035;52.094;5.112;2022-12-18T10:21:29;20.50;;;9.80;;
62030;SDS011;62035;52.094;5.112;2022-12-18T10:24:12;18.55;;;8.80;;
62030;SDS011;62035;52.094;5.112;2022-12-18T10:26:52;14.32;;;8.18;;
62030;SDS011;62035;52.094;5.112;2022-12-18T10:29:27;17.58;;;7.97;;
62030;SDS011;62035;52.094;5.112;2022-12-18T10:31:55;15.07;;;8.43;;
62030;SDS011;62035;52.094;5.112;2022-12-18T10:34:23;17.83;;;8.55;;
62030;SDS011;62035;52.094;5.112;2022-12-18T10:36:52;16.63;;;8.85;;
62030;SDS011;62035;52.094;5.112;2022-12-18T10:39:22;16.48;;;9.07;;
62030;SDS011;62035;52.094;5.112;2022-12-18T10:41:52;18.40;;;8.32;;
62030;SDS011;62035;52.094;5.112;2022-12-18T10:44:39;16.75;;;8.52;;
62030;SDS011;62035;52.094;5.112;2022-12-18T10:47:11;18.20;;;8.38;;
62030;SDS011;62035;52.094;5.112;2022-12-18T10:49:47;15.45;;;8.57;;
62030;SDS011;62035;52.094;5.112;2022-12-18T10:52:18;25.27;;;9.15;;
62030;SDS011;62035;52.094;5.112;2022-12-18T10:54:51;16.75;;;8.45;;
62030;SDS011;62035;52.094;5.112;2022-12-18T10:57:31;17.70;;;8.63;;
62030;SDS011;62035;52.094;5.112;2022-12-18T11:00:22;19.33;;;9.18;;
62030;SDS011;62035;52.094;5.112;2022-12-18T11:02:53;16.83;;;8.07;;
62030;SDS011;62035;52.094;5.112;2022-12-18T11:05:26;18.13;;;9.02;;
62030;SDS011;62035;52.094;5.112;2022-12-18T11:07:57;18.08;;;9.32;;
62030;SDS011;62035;52.094;5.112;2022-12-18T11:10:30;16.42;;;8.32;;
62030;SDS011;62035;52.094;5.112;2022-12-18T11:13:10;16.88;;;8.70;;
62030;SDS011;62035;52.094;5.112;2022-12-18T11:15:44;18.30;;;9.60;;
62030;SDS011;62035;52.094;5.112;2022-12-18T11:18:19;17.92;;;8.85;;
62030;SDS011;62035;52.094;5.112;2022-12-18T11:20:56;19.48;;;8.43;;
62030;SDS011;62035;52.094;5.112;2022-12-18T11:23:33;18.70;;;8.93;;
62030;SDS011;62035;52.094;5.112;2022-12-18T11:26:04;18.25;;;7.82;;
62030;SDS011;62035;52.094;5.112;2022-12-18T11:28:36;20.80;;;8.70;;
62030;SDS011;62035;52.094;5.112;2022-12-18T11:31:21;13.88;;;7.75;;
62030;SDS011;62035;52.094;5.112;2022-12-18T11:33:55;17.67;;;8.30;;
62030;SDS011;62035;52.094;5.112;2022-12-18T11:36:29;17.45;;;8.63;;
62030;SDS011;62035;52.094;5.112;2022-12-18T11:39:12;18.48;;;9.82;;
62030;SDS011;62035;52.094;5.112;2022-12-18T11:41:48;19.38;;;8.38;;
62030;SDS011;62035;52.094;5.112;2022-12-18T11:44:43;14.65;;;7.88;;
62030;SDS011;62035;52.094;5.112;2022-12-18T11:47:22;20.23;;;8.38;;
62030;SDS011;62035;52.094;5.112;2022-12-18T11:50:02;18.52;;;8.00;;
62030;SDS011;62035;52.094;5.112;2022-12-18T11:52:39;17.48;;;8.57;;
62030;SDS011;62035;52.094;5.112;2022-12-18T11:55:10;17.95;;;8.77;;
62030;SDS011;62035;52.094;5.112;2022-12-18T11:57:44;19.73;;;9.65;;
62030;SDS011;62035;52.094;5.112;2022-12-18T12:00:26;17.60;;;8.70;;
62030;SDS011;62035;52.094;5.112;2022-12-18T12:03:00;16.45;;;8.90;;
62030;SDS011;62035;52.094;5.112;2022-12-18T12:05:57;20.80;;;8.82;;
62030;SDS011;62035;52.094;5.112;2022-12-18T12:08:38;17.30;;;8.40;;
62030;SDS011;62035;52.094;5.112;2022-12-18T12:11:30;16.63;;;7.68;;
62030;SDS011;62035;52.094;5.112;2022-12-18T12:14:38;18.05;;;9.15;;
62030;SDS011;62035;52.094;5.112;2022-12-18T12:17:24;15.43;;;8.65;;
62030;SDS011;62035;52.094;5.112;2022-12-18T12:20:06;18.00;;;8.68;;
62030;SDS011;62035;52.094;5.112;2022-12-18T12:22:44;12.93;;;7.20;;
62030;SDS011;62035;52.094;5.112;2022-12-18T12:25:26;18.63;;;9.10;;
62030;SDS011;62035;52.094;5.112;2022-12-18T12:28:07;15.48;;;8.50;;
62030;SDS011;62035;52.094;5.112;2022-12-18T12:30:53;15.35;;;8.57;;
62030;SDS011;62035;52.094;5.112;2022-12-18T12:33:34;16.88;;;8.23;;
62030;SDS011;62035;52.094;5.112;2022-12-18T12:36:17;15.35;;;8.07;;
62030;SDS011;62035;52.094;5.112;2022-12-18T12:38:59;17.10;;;8.52;;
62030;SDS011;62035;52.094;5.112;2022-12-18T12:41:35;14.73;;;8.45;;
62030;SDS011;62035;52.094;5.112;2022-12-18T12:44:24;19.05;;;8.93;;
62030;SDS011;62035;52.094;5.112;2022-12-18T12:46:59;19.35;;;8.90;;
62030;SDS011;62035;52.094;5.112;2022-12-18T12:49:40;21.98;;;9.05;;
62030;SDS011;62035;52.094;5.112;2022-12-18T12:52:14;16.45;;;8.30;;
62030;SDS011;62035;52.094;5.112;2022-12-18T12:54:48;18.52;;;9.00;;
62030;SDS011;62035;52.094;5.112;2022-12-18T12:57:19;18.15;;;8.95;;
62030;SDS011;62035;52.094;5.112;2022-12-18T12:59:57;20.35;;;9.65;;
62030;SDS011;62035;52.094;5.112;2022-12-18T13:02:37;16.70;;;8.82;;
62030;SDS011;62035;52.094;5.112;2022-12-18T13:05:16;16.05;;;8.77;;
62030;SDS011;62035;52.094;5.112;2022-12-18T13:07:54;19.95;;;9.10;;
62030;SDS011;62035;52.094;5.112;2022-12-18T13:10:32;19.98;;;9.52;;
62030;SDS011;62035;52.094;5.112;2022-12-18T13:13:07;19.05;;;9.20;;
62030;SDS011;62035;52.094;5.112;2022-12-18T13:15:38;15.98;;;9.20;;
62030;SDS011;62035;52.094;5.112;2022-12-18T13:18:14;20.35;;;8.98;;
62030;SDS011;62035;52.094;5.112;2022-12-18T13:20:47;19.85;;;9.20;;
62030;SDS011;62035;52.094;5.112;2022-12-18T13:23:26;19.63;;;9.13;;
62030;SDS011;62035;52.094;5.112;2022-12-18T13:26:00;22.05;;;8.75;;
62030;SDS011;62035;52.094;5.112;2022-12-18T13:29:02;18.08;;;8.43;;
62030;SDS011;62035;52.094;5.112;2022-12-18T13:38:18;20.63;;;9.27;;
62030;SDS011;62035;52.094;5.112;2022-12-18T13:40:53;16.88;;;9.25;;
62030;SDS011;62035;52.094;5.112;2022-12-18T13:43:27;17.85;;;9.30;;
62030;SDS011;62035;52.094;5.112;2022-12-18T13:46:01;19.27;;;9.10;;
62030;SDS011;62035;52.094;5.112;2022-12-18T13:48:49;16.15;;;8.52;;
62030;SDS011;62035;52.094;5.112;2022-12-18T13:51:23;20.05;;;9.80;;
62030;SDS011;62035;52.094;5.112;2022-12-18T13:53:53;16.80;;;9.50;;
62030;SDS011;62035;52.094;5.112;2022-12-18T13:56:26;17.73;;;9.43;;
62030;SDS011;62035;52.094;5.112;2022-12-18T13:59:03;17.07;;;8.97;;
62030;SDS011;62035;52.094;5.112;2022-12-18T14:01:43;22.30;;;9.65;;
62030;SDS011;62035;52.094;5.112;2022-12-18T14:04:19;15.85;;;8.13;;
62030;SDS011;62035;52.094;5.112;2022-12-18T14:06:53;20.50;;;9.27;;
62030;SDS011;62035;52.094;5.112;2022-12-18T14:09:26;19.85;;;10.35;;
62030;SDS011;62035;52.094;5.112;2022-12-18T14:11:58;16.27;;;9.00;;
62030;SDS011;62035;52.094;5.112;2022-12-18T14:14:45;21.67;;;10.05;;
62030;SDS011;62035;52.094;5.112;2022-12-18T14:17:18;17.25;;;8.30;;
62030;SDS011;62035;52.094;5.112;2022-12-18T14:19:47;20.80;;;8.80;;
62030;SDS011;62035;52.094;5.112;2022-12-18T14:22:19;20.70;;;10.47;;
62030;SDS011;62035;52.094;5.112;2022-12-18T14:25:05;22.95;;;10.70;;
62030;SDS011;62035;52.094;5.112;2022-12-18T14:27:44;22.75;;;9.25;;
62030;SDS011;62035;52.094;5.112;2022-12-18T14:30:27;20.33;;;10.52;;
62030;SDS011;62035;52.094;5.112;2022-12-18T14:33:05;20.30;;;9.93;;
62030;SDS011;62035;52.094;5.112;2022-12-18T14:35:37;20.27;;;9.80;;
62030;SDS011;62035;52.094;5.112;2022-12-18T14:38:15;19.80;;;10.07;;
62030;SDS011;62035;52.094;5.112;2022-12-18T14:40:53;21.23;;;9.48;;
62030;SDS011;62035;52.094;5.112;2022-12-18T14:43:24;18.58;;;9.07;;
62030;SDS011;62035;52.094;5.112;2022-12-18T14:45:52;18.90;;;9.05;;
62030;SDS011;62035;52.094;5.112;2022-12-18T14:48:22;18.67;;;9.52;;
62030;SDS011;62035;52.094;5.112;2022-12-18T14:51:06;18.85;;;9.80;;
62030;SDS011;62035;52.094;5.112;2022-12-18T14:53:46;19.25;;;9.65;;
62030;SDS011;62035;52.094;5.112;2022-12-18T14:56:20;19.23;;;9.57;;
62030;SDS011;62035;52.094;5.112;2022-12-18T14:58:53;19.27;;;8.82;;
62030;SDS011;62035;52.094;5.112;2022-12-18T15:01:25;24.00;;;10.00;;
62030;SDS011;62035;52.094;5.112;2022-12-18T15:04:03;22.23;;;10.02;;
62030;SDS011;62035;52.094;5.112;2022-12-18T15:06:50;24.25;;;10.32;;
62030;SDS011;62035;52.094;5.112;2022-12-18T15:09:43;19.02;;;9.90;;
62030;SDS011;62035;52.094;5.112;2022-12-18T15:12:32;20.83;;;9.05;;
62030;SDS011;62035;52.094;5.112;2022-12-18T15:15:03;23.73;;;10.43;;